Time;durP1;ratioP1;P1;durP2;ratioP2;P2;SDS_P1;SDS_P2;PMS_P1;PMS_P2;Temp;Humidity;BMP_temperature;BMP_pressure;BME280_temperature;BME280_humidity;BME280_pressure;Samples;Min_cycle;Max_cycle;Signal;HPM_P1;HPM_P2
2021/08/18 00:01:45;;;;;;;4.18;2.75;;;;;;;;;;6125623;23;19998;-67
2021/08/18 00:04:12;;;;;;;4.07;2.40;;;;;;;;;;6124747;23;20156;-68
2021/08/18 00:06:38;;;;;;;8.75;2.88;;;;;;;;;;6125017;23;20367;-67
2021/08/18 00:09:04;;;;;;;3.92;2.33;;;;;;;;;;6125226;23;20002;-67
2021/08/18 00:11:30;;;;;;;3.42;2.53;;;;;;;;;;6124970;23;20386;-67
2021/08/18 00:13:56;;;;;;;5.88;3.10;;;;;;;;;;6099367;23;20343;-68
2021/08/18 00:16:24;;;;;;;4.28;2.80;;;;;;;;;;6124872;23;20427;-67
2021/08/18 00:18:52;;;;;;;6.15;2.75;;;;;;;;;;6125846;23;20002;-65
2021/08/18 00:21:19;;;;;;;3.55;2.67;;;;;;;;;;6126833;23;19998;-65
2021/08/18 00:23:45;;;;;;;6.20;2.70;;;;;;;;;;6127277;23;19994;-65
2021/08/18 00:26:12;;;;;;;6.90;3.20;;;;;;;;;;6126714;23;20001;-68
2021/08/18 00:28:38;;;;;;;4.90;2.90;;;;;;;;;;6126744;23;20515;-67
2021/08/18 00:31:05;;;;;;;4.18;2.63;;;;;;;;;;6126916;23;20025;-68
2021/08/18 00:33:31;;;;;;;3.55;2.30;;;;;;;;;;6126731;23;20402;-68
2021/08/18 00:35:57;;;;;;;6.93;3.03;;;;;;;;;;6126815;23;20332;-68
2021/08/18 00:38:23;;;;;;;7.15;2.20;;;;;;;;;;6126786;23;20312;-67
2021/08/18 00:40:48;;;;;;;4.85;2.47;;;;;;;;;;6126681;23;20002;-65
2021/08/18 00:43:17;;;;;;;5.18;2.30;;;;;;;;;;6126785;23;20073;-66
2021/08/18 00:45:44;;;;;;;5.45;2.50;;;;;;;;;;6126580;23;20386;-63
2021/08/18 00:48:10;;;;;;;5.18;2.40;;;;;;;;;;6126697;23;19998;-67
2021/08/18 00:50:35;;;;;;;5.32;2.45;;;;;;;;;;6126553;23;20002;-67
2021/08/18 00:53:02;;;;;;;5.15;2.88;;;;;;;;;;6126811;23;19994;-67
2021/08/18 00:55:28;;;;;;;5.53;3.00;;;;;;;;;;6126338;23;20002;-66
2021/08/18 00:57:54;;;;;;;3.65;2.53;;;;;;;;;;6127090;23;20016;-65
2021/08/18 01:00:20;;;;;;;4.13;2.58;;;;;;;;;;6126573;23;20013;-66
2021/08/18 01:02:47;;;;;;;4.20;2.90;;;;;;;;;;6125937;23;20427;-68
2021/08/18 01:05:15;;;;;;;3.85;3.17;;;;;;;;;;6126420;23;20006;-66
2021/08/18 01:07:42;;;;;;;4.40;2.78;;;;;;;;;;6126524;23;20327;-68
2021/08/18 01:10:10;;;;;;;5.40;2.30;;;;;;;;;;6126496;23;20005;-68
2021/08/18 01:12:36;;;;;;;4.22;2.63;;;;;;;;;;6126265;23;19998;-65
2021/08/18 01:15:04;;;;;;;4.65;2.47;;;;;;;;;;6126414;23;20005;-68
2021/08/18 01:17:31;;;;;;;3.45;2.70;;;;;;;;;;6100490;23;20006;-65
2021/08/18 01:19:58;;;;;;;5.78;2.72;;;;;;;;;;6126393;23;20009;-67
2021/08/18 01:22:24;;;;;;;3.40;2.30;;;;;;;;;;6126595;23;20033;-68
2021/08/18 01:24:50;;;;;;;6.95;2.70;;;;;;;;;;6126190;23;20016;-68
2021/08/18 01:27:16;;;;;;;3.13;2.35;;;;;;;;;;6126382;23;20002;-70
2021/08/18 01:29:42;;;;;;;4.80;2.35;;;;;;;;;;6126166;23;20002;-67
2021/08/18 01:32:08;;;;;;;4.10;2.70;;;;;;;;;;6126395;23;20106;-66
2021/08/18 01:34:35;;;;;;;4.65;2.70;;;;;;;;;;6125934;23;19998;-65
2021/08/18 01:37:02;;;;;;;6.20;2.90;;;;;;;;;;6126503;23;20028;-67
2021/08/18 01:39:28;;;;;;;3.88;3.03;;;;;;;;;;6126186;23;20057;-68
2021/08/18 01:41:54;;;;;;;5.13;2.97;;;;;;;;;;6126359;23;20030;-68
2021/08/18 01:44:19;;;;;;;5.07;3.15;;;;;;;;;;6126086;23;20009;-68
2021/08/18 01:46:45;;;;;;;6.47;3.00;;;;;;;;;;6125983;23;20001;-68
2021/08/18 01:49:12;;;;;;;7.22;3.15;;;;;;;;;;6126270;23;20005;-67
2021/08/18 01:51:38;;;;;;;4.70;2.50;;;;;;;;;;6126006;23;20005;-67
2021/08/18 01:54:04;;;;;;;7.68;2.90;;;;;;;;;;6126151;23;20004;-67
2021/08/18 01:56:31;;;;;;;5.70;3.00;;;;;;;;;;6125593;23;20042;-65
2021/08/18 01:58:57;;;;;;;5.38;3.10;;;;;;;;;;6126228;23;20002;-68
2021/08/18 02:01:24;;;;;;;4.45;3.10;;;;;;;;;;6126075;23;20084;-65
2021/08/18 02:03:50;;;;;;;7.22;3.22;;;;;;;;;;6125798;23;20092;-63
2021/08/18 02:06:17;;;;;;;5.22;3.38;;;;;;;;;;6125921;23;19998;-66
2021/08/18 02:08:44;;;;;;;5.85;3.03;;;;;;;;;;6125606;23;20084;-67
2021/08/18 02:11:10;;;;;;;6.05;3.58;;;;;;;;;;6126080;23;20068;-68
2021/08/18 02:13:36;;;;;;;7.35;3.60;;;;;;;;;;6125880;23;19998;-68
2021/08/18 02:16:02;;;;;;;7.40;3.30;;;;;;;;;;6125895;23;20475;-65
2021/08/18 02:18:28;;;;;;;5.95;3.60;;;;;;;;;;6125871;23;20053;-67
2021/08/18 02:20:54;;;;;;;6.22;3.80;;;;;;;;;;6125482;23;19998;-67
2021/08/18 02:23:21;;;;;;;5.80;2.70;;;;;;;;;;6125762;23;19998;-67
2021/08/18 02:25:47;;;;;;;4.05;2.95;;;;;;;;;;6125912;23;20002;-65
2021/08/18 02:28:14;;;;;;;6.93;3.45;;;;;;;;;;6125897;23;20002;-66
2021/08/18 02:30:41;;;;;;;7.88;3.05;;;;;;;;;;6125489;23;20210;-68
2021/08/18 02:33:08;;;;;;;5.10;3.30;;;;;;;;;;6125813;23;20004;-66
2021/08/18 02:35:35;;;;;;;4.35;2.80;;;;;;;;;;6125582;23;19998;-67
2021/08/18 02:38:02;;;;;;;5.68;3.50;;;;;;;;;;6125690;23;20025;-67
2021/08/18 02:40:29;;;;;;;6.30;3.15;;;;;;;;;;6125454;23;20089;-65
2021/08/18 02:42:56;;;;;;;4.05;2.97;;;;;;;;;;6125433;23;20327;-65
2021/08/18 02:45:23;;;;;;;6.22;3.05;;;;;;;;;;6125710;23;20080;-67
2021/08/18 02:47:50;;;;;;;5.40;3.33;;;;;;;;;;6125782;23;20001;-68
2021/08/18 02:50:17;;;;;;;5.45;3.78;;;;;;;;;;6099899;23;20001;-67
2021/08/18 02:52:43;;;;;;;4.65;3.00;;;;;;;;;;6125165;23;19998;-67
2021/08/18 02:55:10;;;;;;;5.78;3.15;;;;;;;;;;6125798;23;20320;-67
2021/08/18 02:57:36;;;;;;;5.47;2.88;;;;;;;;;;6126287;23;20006;-66
2021/08/18 03:00:02;;;;;;;6.43;3.70;;;;;;;;;;6125948;23;19998;-66
2021/08/18 03:02:29;;;;;;;5.07;3.30;;;;;;;;;;6125703;23;20005;-66
2021/08/18 03:04:56;;;;;;;7.22;4.07;;;;;;;;;;6125944;23;20028;-63
2021/08/18 03:07:22;;;;;;;4.32;3.35;;;;;;;;;;6126334;23;20006;-68
2021/08/18 03:09:48;;;;;;;5.80;3.10;;;;;;;;;;6125881;23;20009;-65
2021/08/18 03:12:15;;;;;;;5.53;3.50;;;;;;;;;;6125788;23;20002;-68
2021/08/18 03:14:41;;;;;;;8.00;3.80;;;;;;;;;;6126422;23;20076;-65
2021/08/18 03:17:07;;;;;;;6.18;3.30;;;;;;;;;;6126107;23;20009;-67
2021/08/18 03:19:33;;;;;;;6.78;3.72;;;;;;;;;;6125676;23;20001;-67
2021/08/18 03:21:59;;;;;;;8.45;4.25;;;;;;;;;;6099941;23;20057;-66
2021/08/18 03:24:25;;;;;;;6.60;3.30;;;;;;;;;;6125930;23;20002;-67
2021/08/18 03:26:52;;;;;;;5.38;3.38;;;;;;;;;;6125939;23;19998;-66
2021/08/18 03:29:18;;;;;;;5.97;3.40;;;;;;;;;;6126041;23;20001;-66
2021/08/18 03:31:43;;;;;;;3.88;3.25;;;;;;;;;;6125790;23;20343;-68
2021/08/18 03:34:10;;;;;;;8.35;3.53;;;;;;;;;;6125536;23;19994;-64
2021/08/18 03:36:36;;;;;;;4.80;3.20;;;;;;;;;;6125742;23;20081;-67
2021/08/18 03:39:02;;;;;;;4.93;3.35;;;;;;;;;;6126061;23;19998;-65
2021/08/18 03:41:28;;;;;;;8.52;3.55;;;;;;;;;;6126006;23;20004;-66
2021/08/18 03:43:53;;;;;;;6.82;3.78;;;;;;;;;;6126482;23;20002;-67
2021/08/18 03:46:19;;;;;;;8.55;4.15;;;;;;;;;;6125697;23;20006;-69
2021/08/18 03:48:45;;;;;;;9.13;4.80;;;;;;;;;;6126163;23;20002;-66
2021/08/18 03:51:11;;;;;;;16.05;8.95;;;;;;;;;;6126491;23;20441;-67
2021/08/18 03:53:38;;;;;;;18.95;7.50;;;;;;;;;;6127710;23;19998;-66
2021/08/18 03:56:04;;;;;;;13.43;8.07;;;;;;;;;;6127463;23;20010;-65
2021/08/18 03:58:29;;;;;;;23.70;12.13;;;;;;;;;;6127478;23;20009;-70
2021/08/18 04:00:56;;;;;;;32.40;17.23;;;;;;;;;;6127859;23;20009;-67
2021/08/18 04:03:22;;;;;;;26.33;14.90;;;;;;;;;;6127179;23;20025;-69
2021/08/18 04:05:48;;;;;;;19.63;12.02;;;;;;;;;;6128232;23;20384;-68
2021/08/18 04:08:14;;;;;;;25.15;13.85;;;;;;;;;;6127398;23;20008;-67
2021/08/18 04:10:40;;;;;;;24.63;12.65;;;;;;;;;;6127518;23;20041;-65
2021/08/18 04:13:06;;;;;;;19.67;11.23;;;;;;;;;;6127723;23;20371;-65
2021/08/18 04:15:37;;;;;;;18.05;9.88;;;;;;;;;;6101864;23;20072;-68
2021/08/18 04:18:03;;;;;;;16.40;7.25;;;;;;;;;;6127280;23;20049;-66
2021/08/18 04:20:28;;;;;;;11.93;7.15;;;;;;;;;;6101441;23;20086;-66
2021/08/18 04:22:55;;;;;;;10.55;6.65;;;;;;;;;;6127864;23;20412;-67
2021/08/18 04:25:21;;;;;;;14.95;6.72;;;;;;;;;;6127567;23;20009;-66
2021/08/18 04:27:47;;;;;;;17.80;6.20;;;;;;;;;;6127577;23;20081;-67
2021/08/18 04:30:14;;;;;;;14.98;5.65;;;;;;;;;;6127274;23;20009;-68
2021/08/18 04:32:40;;;;;;;9.52;5.10;;;;;;;;;;6127066;23;20053;-67
2021/08/18 04:35:07;;;;;;;7.20;4.80;;;;;;;;;;6127292;23;20016;-65
2021/08/18 04:37:35;;;;;;;10.18;5.07;;;;;;;;;;6101376;23;20029;-68
2021/08/18 04:40:01;;;;;;;10.77;3.92;;;;;;;;;;6127087;23;19994;-67
2021/08/18 04:42:26;;;;;;;11.93;4.38;;;;;;;;;;6127257;23;20002;-69
2021/08/18 04:44:53;;;;;;;8.77;4.22;;;;;;;;;;6127249;23;20483;-67
2021/08/18 04:47:19;;;;;;;6.78;3.97;;;;;;;;;;6127398;23;20045;-64
2021/08/18 04:49:44;;;;;;;10.57;4.13;;;;;;;;;;6127478;23;20014;-67
2021/08/18 04:52:11;;;;;;;8.90;3.58;;;;;;;;;;6127342;23;20029;-67
2021/08/18 04:54:37;;;;;;;7.40;3.58;;;;;;;;;;6127108;23;19994;-68
2021/08/18 04:57:03;;;;;;;11.70;3.95;;;;;;;;;;6127112;23;20405;-66
2021/08/18 04:59:28;;;;;;;4.53;3.33;;;;;;;;;;6127321;23;20097;-66
2021/08/18 05:01:54;;;;;;;5.30;3.08;;;;;;;;;;6127217;23;19997;-66
2021/08/18 05:04:21;;;;;;;4.20;2.90;;;;;;;;;;6126088;23;20463;-67
2021/08/18 05:06:47;;;;;;;4.00;3.00;;;;;;;;;;6127251;23;20002;-68
2021/08/18 05:09:12;;;;;;;5.85;3.10;;;;;;;;;;6127146;23;20017;-66
2021/08/18 05:11:39;;;;;;;3.60;3.10;;;;;;;;;;6127041;23;20073;-68
2021/08/18 05:14:05;;;;;;;5.80;3.60;;;;;;;;;;6127037;23;19994;-69
2021/08/18 05:16:31;;;;;;;5.32;3.15;;;;;;;;;;6127100;23;20344;-68
2021/08/18 05:18:56;;;;;;;6.88;3.47;;;;;;;;;;6127282;23;20450;-66
2021/08/18 05:21:22;;;;;;;3.70;2.90;;;;;;;;;;6127127;23;20092;-66
2021/08/18 05:23:49;;;;;;;6.25;3.20;;;;;;;;;;6127087;23;20029;-66
2021/08/18 05:26:15;;;;;;;5.50;3.13;;;;;;;;;;6126815;23;19994;-63
2021/08/18 05:28:40;;;;;;;6.28;3.40;;;;;;;;;;6100901;23;20036;-67
2021/08/18 05:31:07;;;;;;;7.55;3.53;;;;;;;;;;6127268;23;20002;-68
2021/08/18 05:33:33;;;;;;;9.48;3.85;;;;;;;;;;6126586;23;20002;-66
2021/08/18 05:36:00;;;;;;;4.88;3.30;;;;;;;;;;6127035;23;20057;-67
2021/08/18 05:38:25;;;;;;;5.80;2.72;;;;;;;;;;6126952;23;20057;-66
2021/08/18 05:40:51;;;;;;;8.40;3.90;;;;;;;;;;6126708;23;20419;-66
2021/08/18 05:43:17;;;;;;;6.15;3.00;;;;;;;;;;6127064;23;20490;-67
2021/08/18 05:45:44;;;;;;;11.43;4.85;;;;;;;;;;6126430;23;20002;-65
2021/08/18 05:48:09;;;;;;;9.02;3.13;;;;;;;;;;6126468;23;20439;-67
2021/08/18 05:50:36;;;;;;;4.05;3.00;;;;;;;;;;6100573;23;20049;-66
2021/08/18 05:53:02;;;;;;;6.05;3.53;;;;;;;;;;6126676;23;20049;-68
2021/08/18 05:55:28;;;;;;;7.43;3.28;;;;;;;;;;6126409;23;20002;-65
2021/08/18 05:57:54;;;;;;;8.13;3.25;;;;;;;;;;6126955;23;20012;-67
2021/08/18 06:00:21;;;;;;;4.85;2.63;;;;;;;;;;6125989;23;20089;-64
2021/08/18 06:02:48;;;;;;;6.40;3.03;;;;;;;;;;6124594;23;20026;-67
2021/08/18 06:05:14;;;;;;;5.07;2.80;;;;;;;;;;6126164;23;20013;-69
2021/08/18 06:07:40;;;;;;;5.22;2.85;;;;;;;;;;6123845;23;20153;-66
2021/08/18 06:10:06;;;;;;;4.70;2.85;;;;;;;;;;6125684;23;20026;-67
2021/08/18 06:12:31;;;;;;;4.78;2.95;;;;;;;;;;6126548;23;20004;-65
2021/08/18 06:14:57;;;;;;;8.07;3.53;;;;;;;;;;6126509;23;20002;-67
2021/08/18 06:17:23;;;;;;;5.10;3.15;;;;;;;;;;6126265;23;20044;-64
2021/08/18 06:19:49;;;;;;;5.35;2.95;;;;;;;;;;6125945;23;20002;-66
2021/08/18 06:22:14;;;;;;;6.15;2.70;;;;;;;;;;6126344;23;20450;-66
2021/08/18 06:24:41;;;;;;;3.15;2.25;;;;;;;;;;6126313;23;20002;-64
2021/08/18 06:27:12;;;;;;;6.63;3.00;;;;;;;;;;6126621;23;20332;-65
2021/08/18 06:29:39;;;;;;;3.70;2.60;;;;;;;;;;6094034;23;19995;-66
2021/08/18 06:32:05;;;;;;;4.55;2.53;;;;;;;;;;6119404;23;20080;-69
2021/08/18 06:34:31;;;;;;;4.18;3.28;;;;;;;;;;6126010;23;19998;-66
2021/08/18 06:37:04;;;;;;;9.77;3.45;;;;;;;;;;6126075;23;20046;-64
2021/08/18 06:39:30;;;;;;;3.60;2.40;;;;;;;;;;6126396;23;20419;-67
2021/08/18 06:41:57;;;;;;;2.80;2.38;;;;;;;;;;6126153;23;19994;-66
2021/08/18 06:44:24;;;;;;;7.53;4.10;;;;;;;;;;6099759;23;20009;-67
2021/08/18 06:46:50;;;;;;;5.22;3.58;;;;;;;;;;6126295;23;20454;-69
2021/08/18 06:49:16;;;;;;;5.70;3.42;;;;;;;;;;6126356;23;19994;-66
2021/08/18 06:51:41;;;;;;;5.60;3.25;;;;;;;;;;6126047;23;20009;-67
2021/08/18 06:54:08;;;;;;;19.25;8.77;;;;;;;;;;6125899;23;20002;-69
2021/08/18 06:56:34;;;;;;;8.38;4.30;;;;;;;;;;6125343;23;20511;-68
2021/08/18 06:58:59;;;;;;;3.55;2.25;;;;;;;;;;6125415;23;20347;-68
2021/08/18 07:01:26;;;;;;;9.65;4.57;;;;;;;;;;6126275;23;20002;-66
2021/08/18 07:03:52;;;;;;;5.28;3.00;;;;;;;;;;6125702;23;20017;-66
2021/08/18 07:06:18;;;;;;;4.57;2.80;;;;;;;;;;6123346;23;19997;-68
2021/08/18 07:08:44;;;;;;;5.78;3.20;;;;;;;;;;6122144;23;20009;-65
2021/08/18 07:11:09;;;;;;;9.43;3.72;;;;;;;;;;6125192;23;20074;-65
2021/08/18 07:13:35;;;;;;;3.20;2.30;;;;;;;;;;6125518;23;20430;-66
2021/08/18 07:16:02;;;;;;;7.15;3.40;;;;;;;;;;6125391;23;20005;-68
2021/08/18 07:18:27;;;;;;;6.40;3.47;;;;;;;;;;6126045;23;20005;-68
2021/08/18 07:20:52;;;;;;;7.45;3.42;;;;;;;;;;6125763;23;19998;-69
2021/08/18 07:23:19;;;;;;;2.97;2.25;;;;;;;;;;6125855;23;20383;-66
2021/08/18 07:25:45;;;;;;;4.38;2.83;;;;;;;;;;6125913;23;20008;-66
2021/08/18 07:28:11;;;;;;;7.00;2.58;;;;;;;;;;6125596;23;20028;-65
2021/08/18 07:30:37;;;;;;;5.95;2.85;;;;;;;;;;6125743;23;20335;-66
2021/08/18 07:33:03;;;;;;;8.50;4.60;;;;;;;;;;6125972;23;20057;-68
2021/08/18 07:35:29;;;;;;;5.63;2.75;;;;;;;;;;6125723;23;20487;-68
2021/08/18 07:37:55;;;;;;;4.05;2.42;;;;;;;;;;6125648;23;20065;-68
2021/08/18 07:40:22;;;;;;;6.32;2.60;;;;;;;;;;6125603;23;20069;-68
2021/08/18 07:42:48;;;;;;;7.70;3.17;;;;;;;;;;6125944;23;19998;-66
2021/08/18 07:45:15;;;;;;;5.53;2.80;;;;;;;;;;6125631;23;20065;-69
2021/08/18 07:47:41;;;;;;;6.75;3.03;;;;;;;;;;6125682;23;20026;-67
2021/08/18 07:50:07;;;;;;;5.07;2.50;;;;;;;;;;6125679;23;20020;-67
2021/08/18 07:52:33;;;;;;;4.07;2.72;;;;;;;;;;6125657;23;20491;-68
2021/08/18 07:55:00;;;;;;;8.52;3.25;;;;;;;;;;6124083;23;20424;-66
2021/08/18 07:57:26;;;;;;;5.90;2.40;;;;;;;;;;6124003;23;20001;-64
2021/08/18 07:59:52;;;;;;;9.13;2.80;;;;;;;;;;6125465;23;20014;-62
2021/08/18 08:02:18;;;;;;;3.58;2.50;;;;;;;;;;6125743;23;19998;-66
2021/08/18 08:04:45;;;;;;;8.80;3.25;;;;;;;;;;6122390;23;20029;-67
2021/08/18 08:07:11;;;;;;;5.13;2.80;;;;;;;;;;6124735;23;20053;-66
2021/08/18 08:09:37;;;;;;;4.35;2.30;;;;;;;;;;6123951;23;20009;-70
2021/08/18 08:12:04;;;;;;;7.90;2.97;;;;;;;;;;6124668;23;20016;-67
2021/08/18 08:14:29;;;;;;;4.82;2.70;;;;;;;;;;6124975;23;20048;-67
2021/08/18 08:16:55;;;;;;;4.40;2.25;;;;;;;;;;6124602;23;20013;-66
2021/08/18 08:19:21;;;;;;;3.47;2.33;;;;;;;;;;6124183;23;19998;-66
2021/08/18 08:21:48;;;;;;;6.20;3.00;;;;;;;;;;6124113;23;20478;-66
2021/08/18 08:24:13;;;;;;;4.03;2.53;;;;;;;;;;6125026;23;20077;-67
2021/08/18 08:26:39;;;;;;;6.05;2.28;;;;;;;;;;6125652;23;20056;-66
2021/08/18 08:29:05;;;;;;;4.55;2.30;;;;;;;;;;6125252;23;20009;-68
2021/08/18 08:31:31;;;;;;;4.60;2.50;;;;;;;;;;6098877;23;20435;-66
2021/08/18 08:33:56;;;;;;;3.72;2.30;;;;;;;;;;6125070;23;19998;-68
2021/08/18 08:36:23;;;;;;;5.05;2.35;;;;;;;;;;6124780;23;20009;-63
2021/08/18 08:38:49;;;;;;;5.43;2.35;;;;;;;;;;6125064;23;19998;-66
2021/08/18 08:41:15;;;;;;;4.85;2.72;;;;;;;;;;6126439;23;20009;-66
2021/08/18 08:43:41;;;;;;;4.25;2.50;;;;;;;;;;6126349;23;19998;-66
2021/08/18 08:46:07;;;;;;;4.93;2.78;;;;;;;;;;6125322;23;19998;-67
2021/08/18 08:48:34;;;;;;;6.65;3.58;;;;;;;;;;6126412;23;20009;-67
2021/08/18 08:51:02;;;;;;;5.43;2.55;;;;;;;;;;6126342;23;20089;-68
2021/08/18 08:53:29;;;;;;;5.60;2.70;;;;;;;;;;6126632;23;20098;-66
2021/08/18 08:55:55;;;;;;;7.20;2.95;;;;;;;;;;6126431;23;20009;-65
2021/08/18 08:58:21;;;;;;;8.82;3.85;;;;;;;;;;6126180;23;20427;-65
2021/08/18 09:00:48;;;;;;;3.90;2.67;;;;;;;;;;6126500;23;20029;-69
2021/08/18 09:03:15;;;;;;;4.68;2.72;;;;;;;;;;6125543;23;20022;-66
2021/08/18 09:05:41;;;;;;;4.53;2.58;;;;;;;;;;6126303;23;20002;-68
2021/08/18 09:08:09;;;;;;;6.30;2.67;;;;;;;;;;6126673;23;20001;-69
2021/08/18 09:10:35;;;;;;;5.03;3.08;;;;;;;;;;6126300;23;20308;-68
2021/08/18 09:13:14;;;;;;;7.15;2.88;;;;;;;;;;6126195;23;20437;-71
2021/08/18 09:15:41;;;;;;;4.35;2.50;;;;;;;;;;6126301;23;20013;-67
2021/08/18 09:18:08;;;;;;;6.38;3.80;;;;;;;;;;6126504;23;20002;-70
2021/08/18 09:20:36;;;;;;;4.75;3.08;;;;;;;;;;6094687;23;20018;-65
2021/08/18 09:23:04;;;;;;;6.75;3.55;;;;;;;;;;6126033;23;20002;-66
2021/08/18 09:25:31;;;;;;;5.80;3.08;;;;;;;;;;6125989;23;20055;-67
2021/08/18 09:28:08;;;;;;;7.15;3.35;;;;;;;;;;6126465;23;20001;-66
2021/08/18 09:30:36;;;;;;;5.55;3.25;;;;;;;;;;6126074;23;19998;-68
2021/08/18 09:33:10;;;;;;;6.45;3.63;;;;;;;;;;6126719;23;20495;-68
2021/08/18 09:35:37;;;;;;;3.97;2.75;;;;;;;;;;6126114;23;20002;-66
2021/08/18 09:38:04;;;;;;;5.70;3.38;;;;;;;;;;6125878;23;20040;-68
2021/08/18 09:40:31;;;;;;;7.03;3.22;;;;;;;;;;6125863;23;20080;-65
2021/08/18 09:43:16;;;;;;;4.90;2.80;;;;;;;;;;6100454;23;19994;-66
2021/08/18 09:45:53;;;;;;;5.75;3.38;;;;;;;;;;6126165;23;20155;-65
2021/08/18 09:48:19;;;;;;;6.78;4.03;;;;;;;;;;6094140;23;19998;-68
2021/08/18 09:50:47;;;;;;;5.97;3.70;;;;;;;;;;6118962;23;19998;-67
2021/08/18 09:53:20;;;;;;;6.22;3.30;;;;;;;;;;6126324;23;20069;-66
2021/08/18 09:55:56;;;;;;;9.27;3.45;;;;;;;;;;6125998;23;20025;-66
2021/08/18 09:58:23;;;;;;;8.02;3.08;;;;;;;;;;6126080;23;20077;-67
2021/08/18 10:00:50;;;;;;;5.60;3.42;;;;;;;;;;6125754;23;20041;-68
2021/08/18 10:03:17;;;;;;;8.02;3.42;;;;;;;;;;6125716;23;20542;-65
2021/08/18 10:05:43;;;;;;;7.95;3.70;;;;;;;;;;6125653;23;20002;-68
2021/08/18 10:08:09;;;;;;;5.07;3.40;;;;;;;;;;6125976;23;20443;-66
2021/08/18 10:10:38;;;;;;;7.20;3.70;;;;;;;;;;6125559;23;20005;-65
2021/08/18 10:13:05;;;;;;;4.53;3.25;;;;;;;;;;6126094;23;19994;-66
2021/08/18 10:15:31;;;;;;;6.15;3.63;;;;;;;;;;6098405;23;20094;-67
2021/08/18 10:17:57;;;;;;;7.38;3.65;;;;;;;;;;6124217;23;20005;-67
2021/08/18 10:20:23;;;;;;;5.32;3.50;;;;;;;;;;6122686;23;19998;-68
2021/08/18 10:23:10;;;;;;;7.13;3.53;;;;;;;;;;6123070;23;20026;-68
2021/08/18 10:25:44;;;;;;;9.85;4.30;;;;;;;;;;6123582;23;19998;-67
2021/08/18 10:28:11;;;;;;;5.95;3.30;;;;;;;;;;6123848;23;19998;-67
2021/08/18 10:30:47;;;;;;;7.50;3.40;;;;;;;;;;6125602;23;20446;-66
2021/08/18 10:33:31;;;;;;;4.97;3.30;;;;;;;;;;6133310;23;20002;-66
2021/08/18 10:35:57;;;;;;;6.90;3.63;;;;;;;;;;6128038;23;20012;-69
2021/08/18 10:38:38;;;;;;;5.93;3.30;;;;;;;;;;6125232;23;20001;-69
2021/08/18 10:41:03;;;;;;;7.05;3.63;;;;;;;;;;6125249;23;20061;-69
2021/08/18 10:43:47;;;;;;;5.60;3.67;;;;;;;;;;6125349;23;20375;-69
2021/08/18 10:46:12;;;;;;;7.65;3.50;;;;;;;;;;6125331;23;20020;-68
2021/08/18 10:48:58;;;;;;;6.68;3.70;;;;;;;;;;6125310;23;19998;-68
2021/08/18 10:51:42;;;;;;;5.15;3.30;;;;;;;;;;6124812;23;20001;-69
2021/08/18 10:54:27;;;;;;;4.65;3.20;;;;;;;;;;6125060;23;20005;-68
2021/08/18 10:56:58;;;;;;;4.32;3.03;;;;;;;;;;6124865;23;20006;-68
2021/08/18 10:59:43;;;;;;;8.77;3.95;;;;;;;;;;6124899;23;20081;-68
2021/08/18 11:02:09;;;;;;;5.15;3.17;;;;;;;;;;6124876;23;20008;-68
2021/08/18 11:04:45;;;;;;;5.45;3.30;;;;;;;;;;6128908;23;20021;-69
2021/08/18 11:07:12;;;;;;;6.35;3.75;;;;;;;;;;6125121;23;20086;-68
2021/08/18 11:09:53;;;;;;;6.80;3.85;;;;;;;;;;6125240;23;20052;-69
2021/08/18 11:12:38;;;;;;;4.10;3.20;;;;;;;;;;6124943;23;20060;-69
2021/08/18 11:15:24;;;;;;;7.18;4.00;;;;;;;;;;6125285;23;20006;-69
2021/08/18 11:17:50;;;;;;;8.40;3.60;;;;;;;;;;6093054;23;20081;-69
2021/08/18 11:20:17;;;;;;;6.90;3.38;;;;;;;;;;6113587;23;20028;-69
2021/08/18 11:22:44;;;;;;;6.53;3.58;;;;;;;;;;6124907;23;20480;-69
2021/08/18 11:25:10;;;;;;;4.85;3.25;;;;;;;;;;6124983;23;20056;-66
2021/08/18 11:27:36;;;;;;;6.10;3.63;;;;;;;;;;6125526;23;20006;-69
2021/08/18 11:30:02;;;;;;;6.30;3.40;;;;;;;;;;6123708;23;20033;-68
2021/08/18 11:32:28;;;;;;;6.55;3.35;;;;;;;;;;6125088;23;20005;-68
2021/08/18 11:34:54;;;;;;;5.82;3.33;;;;;;;;;;6124984;23;20057;-68
2021/08/18 11:37:22;;;;;;;8.10;3.63;;;;;;;;;;6124762;23;20060;-68
2021/08/18 11:39:55;;;;;;;5.68;3.72;;;;;;;;;;6124688;23;20085;-68
2021/08/18 11:42:21;;;;;;;4.85;3.45;;;;;;;;;;6100073;23;20088;-68
2021/08/18 11:44:59;;;;;;;7.50;3.97;;;;;;;;;;6124477;23;20002;-68
2021/08/18 11:47:27;;;;;;;6.32;3.05;;;;;;;;;;6124850;23;20002;-68
2021/08/18 11:49:53;;;;;;;4.95;3.15;;;;;;;;;;6124635;23;20006;-68
2021/08/18 11:52:20;;;;;;;4.43;2.97;;;;;;;;;;6124654;23;20002;-68
2021/08/18 11:55:04;;;;;;;4.00;2.53;;;;;;;;;;6123441;23;20404;-68
2021/08/18 11:57:29;;;;;;;4.55;3.30;;;;;;;;;;6121441;23;20014;-68
2021/08/18 11:59:56;;;;;;;4.88;2.97;;;;;;;;;;6124246;23;20041;-68
2021/08/18 12:02:26;;;;;;;3.33;2.60;;;;;;;;;;6123709;23;20004;-67
2021/08/18 12:04:55;;;;;;;4.90;2.50;;;;;;;;;;6124970;23;20018;-71
2021/08/18 12:07:21;;;;;;;5.93;2.58;;;;;;;;;;6124971;23;20002;-71
2021/08/18 12:10:06;;;;;;;3.42;2.40;;;;;;;;;;6123916;23;20005;-71
2021/08/18 12:12:32;;;;;;;2.97;2.10;;;;;;;;;;6093543;23;20355;-72
2021/08/18 12:15:07;;;;;;;4.40;2.22;;;;;;;;;;6121526;23;20431;-69
2021/08/18 12:17:37;;;;;;;3.58;2.50;;;;;;;;;;6126953;23;19997;-66
2021/08/18 12:20:04;;;;;;;6.38;2.70;;;;;;;;;;6126318;23;20073;-73
2021/08/18 12:22:31;;;;;;;3.80;2.38;;;;;;;;;;6126197;23;20085;-71
2021/08/18 12:25:14;;;;;;;4.70;2.85;;;;;;;;;;6126896;23;20008;-70
2021/08/18 12:27:40;;;;;;;5.63;2.38;;;;;;;;;;6126869;23;20484;-70
2021/08/18 12:30:07;;;;;;;3.38;2.33;;;;;;;;;;6124250;23;19998;-70
2021/08/18 12:32:32;;;;;;;7.07;2.78;;;;;;;;;;6126860;23;20001;-69
2021/08/18 12:35:00;;;;;;;4.20;2.50;;;;;;;;;;6125154;23;20002;-70
2021/08/18 12:37:30;;;;;;;11.00;2.40;;;;;;;;;;6075211;23;20040;-69
2021/08/18 12:40:04;;;;;;;3.50;2.20;;;;;;;;;;6126111;23;19994;-69
2021/08/18 12:42:43;;;;;;;5.20;2.15;;;;;;;;;;6126672;23;20372;-69
2021/08/18 12:45:13;;;;;;;5.07;2.17;;;;;;;;;;6126481;23;20036;-69
2021/08/18 12:47:43;;;;;;;2.70;2.00;;;;;;;;;;6126652;23;20094;-70
2021/08/18 12:50:11;;;;;;;5.20;2.30;;;;;;;;;;6125329;23;20445;-69
2021/08/18 12:52:37;;;;;;;4.60;2.50;;;;;;;;;;6100744;23;19994;-69
2021/08/18 12:55:03;;;;;;;12.95;2.75;;;;;;;;;;6126704;23;20002;-69
2021/08/18 12:57:30;;;;;;;3.83;2.40;;;;;;;;;;6126371;23;20013;-69
2021/08/18 12:59:56;;;;;;;3.67;2.30;;;;;;;;;;6126219;23;20002;-70
2021/08/18 13:02:21;;;;;;;3.72;2.25;;;;;;;;;;6126127;23;20116;-69
2021/08/18 13:04:47;;;;;;;4.47;2.20;;;;;;;;;;6125884;23;20041;-72
2021/08/18 13:07:13;;;;;;;5.10;2.08;;;;;;;;;;6126133;23;20087;-68
2021/08/18 13:09:46;;;;;;;3.45;2.42;;;;;;;;;;6125928;23;20002;-68
2021/08/18 13:12:17;;;;;;;4.25;2.22;;;;;;;;;;6126106;23;20324;-68
2021/08/18 13:14:42;;;;;;;3.63;2.33;;;;;;;;;;6126513;23;19998;-67
2021/08/18 13:17:08;;;;;;;4.72;2.65;;;;;;;;;;6124822;23;20017;-71
2021/08/18 13:19:33;;;;;;;4.40;2.35;;;;;;;;;;6124913;23;20436;-72
2021/08/18 13:21:58;;;;;;;6.18;2.40;;;;;;;;;;6124711;23;20002;-72
2021/08/18 13:24:24;;;;;;;5.82;2.45;;;;;;;;;;6099863;23;20002;-69
2021/08/18 13:26:49;;;;;;;5.60;2.47;;;;;;;;;;6126347;23;20010;-71
2021/08/18 13:29:15;;;;;;;4.13;2.38;;;;;;;;;;6125887;23;20009;-70
2021/08/18 13:31:41;;;;;;;4.30;2.38;;;;;;;;;;6125772;23;20005;-70
2021/08/18 13:34:17;;;;;;;5.68;2.20;;;;;;;;;;6125547;23;20005;-69
2021/08/18 13:36:43;;;;;;;3.90;2.40;;;;;;;;;;6126196;23;20464;-71
2021/08/18 13:39:09;;;;;;;4.30;2.60;;;;;;;;;;6125859;23;19994;-70
2021/08/18 13:41:34;;;;;;;4.18;2.45;;;;;;;;;;6126488;23;20327;-69
2021/08/18 13:44:00;;;;;;;2.63;1.80;;;;;;;;;;6099889;23;20053;-72
2021/08/18 13:46:25;;;;;;;3.15;2.13;;;;;;;;;;6126021;23;19994;-70
2021/08/18 13:48:52;;;;;;;5.45;2.20;;;;;;;;;;6099632;23;20002;-70
2021/08/18 13:51:17;;;;;;;2.60;1.70;;;;;;;;;;6125454;23;20002;-71
2021/08/18 13:53:43;;;;;;;6.10;2.30;;;;;;;;;;6125938;23;20013;-70
2021/08/18 13:56:08;;;;;;;4.95;2.10;;;;;;;;;;6125138;23;20010;-71
2021/08/18 13:58:34;;;;;;;4.00;2.50;;;;;;;;;;6125569;23;20327;-73
2021/08/18 14:00:59;;;;;;;4.97;2.33;;;;;;;;;;6125539;23;20100;-73
2021/08/18 14:03:25;;;;;;;6.32;2.10;;;;;;;;;;6094385;23;20102;-69
2021/08/18 14:05:51;;;;;;;4.07;2.53;;;;;;;;;;6096355;23;20002;-72
2021/08/18 14:08:16;;;;;;;4.10;2.40;;;;;;;;;;6096209;23;19998;-70
2021/08/18 14:10:43;;;;;;;3.72;2.10;;;;;;;;;;6096334;23;20009;-71
2021/08/18 14:13:09;;;;;;;3.33;2.30;;;;;;;;;;6096509;23;20029;-72
2021/08/18 14:15:35;;;;;;;4.38;2.10;;;;;;;;;;6096428;23;20427;-71
2021/08/18 14:18:03;;;;;;;3.97;2.10;;;;;;;;;;6096156;23;20041;-67
2021/08/18 14:20:28;;;;;;;2.85;1.52;;;;;;;;;;6096640;23;20006;-72
2021/08/18 14:22:55;;;;;;;4.70;2.00;;;;;;;;;;6094828;23;20694;-69
2021/08/18 14:25:26;;;;;;;3.42;1.52;;;;;;;;;;6093068;23;20003;-66
2021/08/18 14:27:54;;;;;;;1.83;1.58;;;;;;;;;;6093877;23;20007;-67
2021/08/18 14:30:20;;;;;;;3.75;1.60;;;;;;;;;;6094680;23;20029;-69
2021/08/18 14:32:45;;;;;;;2.35;1.63;;;;;;;;;;6094539;23;20003;-70
2021/08/18 14:35:12;;;;;;;2.95;1.58;;;;;;;;;;6095270;23;20002;-70
2021/08/18 14:37:41;;;;;;;3.60;2.03;;;;;;;;;;6095149;23;20058;-70
2021/08/18 14:40:10;;;;;;;1.85;1.45;;;;;;;;;;6095453;23;20077;-70
2021/08/18 14:42:37;;;;;;;2.80;1.40;;;;;;;;;;6096804;23;20029;-71